createdAt,value
2022-08-26T00:01:56.812Z,16.00
2022-08-26T00:04:25.847Z,16.00
2022-08-26T00:06:55.667Z,16.00
2022-08-26T00:09:24.768Z,16.00
2022-08-26T00:11:53.377Z,16.00
2022-08-26T00:14:20.952Z,16.00
2022-08-26T00:16:49.007Z,15.90
2022-08-26T00:19:19.175Z,15.90
2022-08-26T00:21:49.657Z,15.90
2022-08-26T00:24:19.270Z,15.90
2022-08-26T00:26:46.662Z,15.90
2022-08-26T00:29:14.882Z,15.90
2022-08-26T00:31:42.501Z,15.80
2022-08-26T00:34:12.528Z,15.80
2022-08-26T00:36:40.939Z,15.80
2022-08-26T00:39:09.539Z,15.80
2022-08-26T00:41:40.470Z,15.80
2022-08-26T00:44:11.008Z,15.80
2022-08-26T00:46:47.221Z,15.80
2022-08-26T00:49:20.129Z,15.80
2022-08-26T00:51:56.975Z,15.80
2022-08-26T00:54:30.042Z,15.80
2022-08-26T00:57:16.089Z,15.80
2022-08-26T00:59:56.793Z,15.80
2022-08-26T01:02:24.948Z,15.80
2022-08-26T01:04:57.947Z,15.80
2022-08-26T01:07:31.370Z,15.80
2022-08-26T01:10:02.353Z,15.80
2022-08-26T01:12:40.977Z,15.80
2022-08-26T01:15:15.342Z,15.80
2022-08-26T01:17:42.517Z,15.70
2022-08-26T01:20:39.305Z,15.70
2022-08-26T01:23:09.514Z,15.60
2022-08-26T01:25:44.346Z,15.60
2022-08-26T01:28:28.591Z,15.50
2022-08-26T01:30:59.850Z,15.50
2022-08-26T01:33:42.502Z,15.40
2022-08-26T01:36:11.189Z,15.40
2022-08-26T01:38:39.886Z,15.30
2022-08-26T01:41:16.171Z,15.30
2022-08-26T01:43:53.243Z,15.30
2022-08-26T01:46:23.696Z,15.30
2022-08-26T01:48:54.575Z,15.20
2022-08-26T01:51:25.138Z,15.20
2022-08-26T01:53:51.991Z,15.20
2022-08-26T01:56:23.569Z,15.10
2022-08-26T01:58:58.663Z,15.10
2022-08-26T02:01:29.077Z,15.10
2022-08-26T02:04:23.345Z,15.00
2022-08-26T02:06:52.314Z,15.00
2022-08-26T02:09:21.100Z,15.00
2022-08-26T02:11:48.723Z,15.00
2022-08-26T02:14:28.050Z,15.00
2022-08-26T02:16:56.124Z,15.00
2022-08-26T02:19:33.254Z,14.90
2022-08-26T02:22:06.655Z,14.90
2022-08-26T02:24:50.216Z,14.90
2022-08-26T02:27:32.339Z,14.90
2022-08-26T02:30:20.006Z,14.90
2022-08-26T02:32:49.627Z,14.80
2022-08-26T02:35:20.486Z,14.70
2022-08-26T02:37:49.985Z,14.70
2022-08-26T02:40:24.747Z,14.70
2022-08-26T02:42:53.023Z,14.60
2022-08-26T02:45:23.875Z,14.60
2022-08-26T02:47:52.395Z,14.60
2022-08-26T02:50:20.259Z,14.60
2022-08-26T02:52:48.323Z,14.60
2022-08-26T02:55:16.130Z,14.60
2022-08-26T02:57:43.319Z,14.60
2022-08-26T03:00:14.746Z,14.70
2022-08-26T03:02:41.951Z,14.60
2022-08-26T03:05:11.281Z,14.60
2022-08-26T03:07:38.772Z,14.60
2022-08-26T03:10:08.528Z,14.60
2022-08-26T03:12:36.149Z,14.70
2022-08-26T03:15:15.957Z,14.70
2022-08-26T03:17:46.380Z,14.60
2022-08-26T03:20:13.820Z,14.60
2022-08-26T03:22:44.870Z,14.60
2022-08-26T03:25:15.768Z,14.50
2022-08-26T03:27:43.301Z,14.50
2022-08-26T03:30:30.687Z,14.50
2022-08-26T03:32:58.012Z,14.40
2022-08-26T03:35:25.786Z,14.40
2022-08-26T03:37:53.941Z,14.30
2022-08-26T03:40:21.414Z,14.30
2022-08-26T03:42:50.366Z,14.30
2022-08-26T03:45:19.173Z,14.30
2022-08-26T03:47:48.028Z,14.20
2022-08-26T03:50:22.851Z,14.20
2022-08-26T03:52:53.250Z,14.20
2022-08-26T03:55:27.853Z,14.10
2022-08-26T03:57:54.906Z,14.10
2022-08-26T04:00:22.293Z,14.10
2022-08-26T04:02:53.237Z,14.10
2022-08-26T04:05:22.776Z,14.10
2022-08-26T04:07:51.687Z,14.10
2022-08-26T04:10:28.463Z,14.10
2022-08-26T04:13:00.701Z,14.10
2022-08-26T04:15:28.378Z,14.10
2022-08-26T04:17:55.832Z,14.10
2022-08-26T04:20:24.517Z,14.00
2022-08-26T04:22:52.341Z,14.00
2022-08-26T04:25:20.520Z,14.00
2022-08-26T04:27:48.182Z,14.00
2022-08-26T04:30:15.752Z,14.00
2022-08-26T04:32:43.891Z,14.00
2022-08-26T04:35:11.172Z,14.00
2022-08-26T04:37:38.529Z,14.00
2022-08-26T04:40:09.915Z,14.10
2022-08-26T04:42:36.864Z,14.00
2022-08-26T04:45:05.949Z,14.10
2022-08-26T04:47:37.387Z,14.20
2022-08-26T04:50:06.905Z,14.20
2022-08-26T04:52:36.186Z,14.20
2022-08-26T04:55:03.358Z,14.20
2022-08-26T04:57:33.699Z,14.20
2022-08-26T05:00:00.586Z,14.20
2022-08-26T05:02:27.962Z,14.20
2022-08-26T05:04:54.907Z,14.40
2022-08-26T05:07:21.728Z,14.40
2022-08-26T05:09:49.241Z,14.40
2022-08-26T05:12:16.112Z,14.50
2022-08-26T05:14:43.362Z,14.60
2022-08-26T05:17:10.283Z,14.70
2022-08-26T05:19:42.846Z,14.80
2022-08-26T05:22:09.859Z,15.00
2022-08-26T05:24:41.156Z,15.30
2022-08-26T05:27:11.432Z,15.60
2022-08-26T05:29:40.091Z,15.90
2022-08-26T05:32:07.136Z,16.20
2022-08-26T05:34:34.444Z,16.50
2022-08-26T05:37:01.798Z,16.90
2022-08-26T05:39:32.379Z,17.10
2022-08-26T05:41:59.491Z,17.40
2022-08-26T05:44:26.826Z,17.40
2022-08-26T05:46:53.830Z,17.40
2022-08-26T05:49:20.715Z,17.30
2022-08-26T05:51:53.136Z,17.30
2022-08-26T05:54:22.132Z,17.30
2022-08-26T05:56:51.321Z,17.40
2022-08-26T05:59:24.068Z,17.40
2022-08-26T06:01:52.045Z,17.40
2022-08-26T06:04:20.058Z,17.30
2022-08-26T06:06:47.334Z,17.30
2022-08-26T06:09:14.447Z,17.20
2022-08-26T06:11:44.383Z,17.30
2022-08-26T06:14:11.644Z,17.30
2022-08-26T06:16:43.665Z,17.30
2022-08-26T06:19:15.463Z,17.30
2022-08-26T06:21:46.905Z,17.40
2022-08-26T06:24:37.013Z,17.40
2022-08-26T06:27:09.562Z,17.50
2022-08-26T06:29:38.403Z,17.50
2022-08-26T06:32:05.788Z,17.60
2022-08-26T06:34:33.805Z,17.60
2022-08-26T06:37:02.717Z,17.70
2022-08-26T06:39:31.461Z,17.80
2022-08-26T06:42:00.450Z,17.90
2022-08-26T06:44:27.572Z,18.00
2022-08-26T06:46:55.297Z,18.10
2022-08-26T06:49:25.626Z,18.30
2022-08-26T06:51:58.406Z,18.40
2022-08-26T06:54:27.386Z,18.40
2022-08-26T06:56:56.742Z,18.50
2022-08-26T06:59:24.077Z,18.50
2022-08-26T07:01:52.227Z,18.60
2022-08-26T07:04:22.054Z,18.70
2022-08-26T07:06:53.016Z,18.70
2022-08-26T07:09:27.087Z,18.70
2022-08-26T07:11:58.430Z,18.80
2022-08-26T07:14:26.603Z,18.80
2022-08-26T07:16:54.788Z,18.80
2022-08-26T07:19:31.015Z,18.90
2022-08-26T07:22:02.175Z,18.90
2022-08-26T07:24:32.873Z,18.90
2022-08-26T07:27:06.491Z,18.90
2022-08-26T07:29:34.966Z,19.00
2022-08-26T07:32:03.717Z,19.00
2022-08-26T07:34:32.327Z,19.00
2022-08-26T07:37:00.650Z,19.10
2022-08-26T07:39:28.235Z,19.10
2022-08-26T07:42:07.999Z,19.30
2022-08-26T07:44:37.203Z,19.40
2022-08-26T07:47:24.078Z,19.50
2022-08-26T07:49:53.487Z,19.60
2022-08-26T07:52:25.977Z,19.80
2022-08-26T07:54:54.201Z,20.00
2022-08-26T07:57:21.327Z,20.10
2022-08-26T07:59:51.407Z,20.30
2022-08-26T08:02:20.991Z,20.40
2022-08-26T08:04:47.945Z,20.50
2022-08-26T08:07:14.807Z,20.60
2022-08-26T08:09:41.654Z,20.80
2022-08-26T08:12:09.414Z,21.00
2022-08-26T08:14:45.120Z,21.30
2022-08-26T08:17:14.336Z,21.60
2022-08-26T08:19:43.424Z,21.80
2022-08-26T08:22:17.444Z,22.10
2022-08-26T08:24:49.969Z,22.40
2022-08-26T08:27:23.553Z,22.60
2022-08-26T08:29:54.332Z,22.60
2022-08-26T08:32:23.328Z,22.80
2022-08-26T08:34:50.286Z,23.40
2022-08-26T08:37:17.167Z,24.10
2022-08-26T08:39:43.954Z,24.60
2022-08-26T08:42:43.421Z,24.80
2022-08-26T08:45:18.903Z,24.80
2022-08-26T08:48:27.567Z,24.80
2022-08-26T08:51:09.438Z,24.80
2022-08-26T08:53:44.424Z,25.40
2022-08-26T08:56:24.733Z,26.20
2022-08-26T08:58:56.669Z,26.50
2022-08-26T09:02:17.049Z,26.80
2022-08-26T09:05:07.873Z,27.40
2022-08-26T09:07:47.234Z,28.40
2022-08-26T09:10:36.805Z,28.90
2022-08-26T09:13:16.356Z,29.30
2022-08-26T09:16:00.498Z,29.90
2022-08-26T09:18:59.635Z,30.40
2022-08-26T09:21:26.965Z,30.80
2022-08-26T09:23:56.623Z,30.90
2022-08-26T09:26:30.781Z,30.40
2022-08-26T09:29:08.682Z,29.90
2022-08-26T09:31:41.436Z,29.60
2022-08-26T09:34:25.441Z,29.50
2022-08-26T09:36:55.546Z,29.50
2022-08-26T09:39:28.021Z,29.50
2022-08-26T09:42:12.728Z,29.60
2022-08-26T09:45:01.786Z,29.30
2022-08-26T09:47:53.665Z,29.20
2022-08-26T09:50:35.104Z,29.00
2022-08-26T09:53:30.326Z,28.90
2022-08-26T09:56:25.616Z,28.90
2022-08-26T09:58:56.607Z,28.90
2022-08-26T10:01:23.424Z,29.00
2022-08-26T10:03:51.770Z,29.20
2022-08-26T10:06:21.166Z,29.60
2022-08-26T10:08:57.318Z,30.00
2022-08-26T10:11:39.659Z,30.10
2022-08-26T10:14:15.668Z,30.30
2022-08-26T10:17:03.233Z,30.70
2022-08-26T10:19:57.598Z,31.10
2022-08-26T10:23:05.113Z,31.40
2022-08-26T10:25:48.681Z,31.90
2022-08-26T10:29:01.511Z,32.50
2022-08-26T10:31:52.147Z,32.80
2022-08-26T10:34:21.208Z,32.80
2022-08-26T10:37:13.975Z,32.50
2022-08-26T10:39:58.861Z,32.20
2022-08-26T10:42:42.559Z,31.90
2022-08-26T10:45:19.780Z,31.00
2022-08-26T10:47:59.973Z,30.60
2022-08-26T10:50:35.493Z,30.70
2022-08-26T10:53:45.318Z,31.10
2022-08-26T10:56:37.559Z,31.50
2022-08-26T10:59:43.737Z,31.70
2022-08-26T11:02:37.996Z,31.70
2022-08-26T11:05:23.584Z,31.40
2022-08-26T11:08:19.551Z,31.10
2022-08-26T11:10:59.077Z,30.90
2022-08-26T11:13:59.583Z,30.60
2022-08-26T11:16:42.926Z,30.40
2022-08-26T11:20:01.998Z,30.10
2022-08-26T11:22:48.044Z,29.90
2022-08-26T11:25:30.078Z,29.80
2022-08-26T11:27:59.883Z,29.80
2022-08-26T11:30:42.681Z,29.60
2022-08-26T11:33:11.215Z,29.20
2022-08-26T11:35:38.599Z,28.80
2022-08-26T11:38:45.001Z,28.60
2022-08-26T11:41:21.144Z,28.60
2022-08-26T11:43:52.164Z,28.70
2022-08-26T11:46:30.306Z,28.80
2022-08-26T11:49:07.470Z,28.70
2022-08-26T11:51:40.424Z,28.80
2022-08-26T11:54:15.910Z,28.70
2022-08-26T11:56:46.711Z,28.80
2022-08-26T12:02:15.357Z,28.90
2022-08-26T12:04:48.373Z,28.90
2022-08-26T12:07:17.157Z,29.00
2022-08-26T12:10:04.534Z,29.10
2022-08-26T12:12:39.373Z,29.10
2022-08-26T12:15:22.732Z,29.10
2022-08-26T12:17:54.390Z,28.70
2022-08-26T12:20:45.954Z,28.60
2022-08-26T12:23:40.165Z,28.70
2022-08-26T12:26:32.842Z,28.90
2022-08-26T12:29:10.792Z,28.90
2022-08-26T12:31:48.128Z,28.90
2022-08-26T12:34:17.554Z,28.90
2022-08-26T12:36:48.719Z,29.00
2022-08-26T12:39:36.747Z,29.10
2022-08-26T12:42:12.630Z,29.30
2022-08-26T12:45:04.136Z,29.40
2022-08-26T12:47:43.443Z,29.30
2022-08-26T12:50:30.959Z,29.20
2022-08-26T12:53:20.701Z,29.20
2022-08-26T12:55:51.348Z,29.30
2022-08-26T12:58:39.020Z,29.30
2022-08-26T13:01:08.731Z,29.30
2022-08-26T13:03:38.389Z,29.20
2022-08-26T13:06:15.822Z,29.10
2022-08-26T13:08:53.064Z,29.10
2022-08-26T13:11:27.744Z,29.20
2022-08-26T13:14:12.389Z,29.00
2022-08-26T13:16:46.518Z,29.00
2022-08-26T13:19:21.874Z,28.90
2022-08-26T13:22:00.321Z,29.00
2022-08-26T13:24:38.476Z,29.10
2022-08-26T13:27:09.355Z,29.20
2022-08-26T13:29:36.432Z,29.30
2022-08-26T13:32:06.017Z,29.30
2022-08-26T13:34:34.068Z,29.10
2022-08-26T13:37:01.085Z,29.00
2022-08-26T13:39:27.936Z,29.10
2022-08-26T13:41:54.977Z,29.00
2022-08-26T13:44:22.026Z,29.10
2022-08-26T13:46:49.020Z,29.10
2022-08-26T13:49:16.010Z,29.30
2022-08-26T13:51:42.961Z,29.40
2022-08-26T13:54:09.825Z,29.50
2022-08-26T13:56:37.393Z,29.50
2022-08-26T13:59:05.672Z,29.30
2022-08-26T14:01:35.047Z,29.20
2022-08-26T14:04:02.999Z,29.00
2022-08-26T14:06:30.160Z,29.00
2022-08-26T14:08:57.600Z,28.80
2022-08-26T14:11:24.940Z,28.70
2022-08-26T14:13:52.286Z,28.70
2022-08-26T14:16:26.947Z,28.60
2022-08-26T14:18:54.189Z,28.60
2022-08-26T14:21:21.667Z,28.60
2022-08-26T14:23:48.624Z,28.50
2022-08-26T14:26:28.149Z,28.40
2022-08-26T14:28:58.871Z,28.20
2022-08-26T14:31:27.443Z,28.00
2022-08-26T14:33:59.345Z,27.70
2022-08-26T14:36:29.335Z,27.60
2022-08-26T14:39:04.887Z,27.50
2022-08-26T14:41:33.835Z,27.50
2022-08-26T14:44:07.406Z,27.60
2022-08-26T14:46:49.538Z,27.40
2022-08-26T14:49:18.257Z,27.30
2022-08-26T14:51:46.025Z,27.30
2022-08-26T14:54:16.027Z,27.30
2022-08-26T14:56:58.578Z,27.40
2022-08-26T14:59:38.915Z,27.30
2022-08-26T15:02:08.955Z,27.30
2022-08-26T15:04:41.150Z,27.30
2022-08-26T15:07:09.186Z,27.20
2022-08-26T15:09:39.898Z,27.00
2022-08-26T15:12:06.977Z,26.60
2022-08-26T15:14:34.278Z,26.30
2022-08-26T15:17:01.518Z,26.00
2022-08-26T15:19:29.022Z,25.90
2022-08-26T15:21:56.971Z,25.70
2022-08-26T15:24:26.352Z,25.60
2022-08-26T15:26:54.236Z,25.40
2022-08-26T15:29:23.967Z,25.40
2022-08-26T15:31:51.119Z,25.30
2022-08-26T15:34:19.375Z,25.30
2022-08-26T15:36:47.816Z,25.20
2022-08-26T15:39:17.089Z,25.10
2022-08-26T15:41:44.077Z,25.10
2022-08-26T15:44:13.689Z,25.00
2022-08-26T15:46:40.817Z,24.90
2022-08-26T15:49:08.122Z,24.70
2022-08-26T15:51:45.720Z,24.60
2022-08-26T15:54:16.515Z,24.40
2022-08-26T15:56:43.823Z,24.20
2022-08-26T15:59:11.761Z,24.10
2022-08-26T16:01:40.124Z,23.90
2022-08-26T16:04:07.459Z,23.80
2022-08-26T16:06:38.736Z,23.70
2022-08-26T16:09:07.412Z,23.60
2022-08-26T16:11:35.974Z,23.40
2022-08-26T16:14:04.647Z,23.40
2022-08-26T16:16:32.164Z,23.20
2022-08-26T16:19:00.548Z,23.20
2022-08-26T16:21:30.543Z,23.10
2022-08-26T16:23:58.628Z,23.10
2022-08-26T16:26:32.481Z,23.10
2022-08-26T16:29:03.425Z,23.00
2022-08-26T16:31:30.330Z,22.90
2022-08-26T16:33:57.343Z,22.80
2022-08-26T16:36:24.262Z,22.80
2022-08-26T16:38:55.563Z,22.70
2022-08-26T16:41:25.696Z,22.80
2022-08-26T16:43:53.131Z,22.70
2022-08-26T16:46:22.129Z,22.70
2022-08-26T16:48:49.352Z,22.70
2022-08-26T16:51:19.626Z,22.60
2022-08-26T16:53:46.895Z,22.60
2022-08-26T16:56:17.036Z,22.60
2022-08-26T16:58:44.924Z,22.50
2022-08-26T17:01:11.924Z,22.50
2022-08-26T17:03:38.791Z,22.40
2022-08-26T17:06:06.024Z,22.40
2022-08-26T17:08:33.359Z,22.30
2022-08-26T17:11:01.099Z,22.20
2022-08-26T17:13:34.611Z,22.20
2022-08-26T17:16:05.154Z,22.20
2022-08-26T17:18:32.800Z,22.20
2022-08-26T17:21:07.396Z,22.20
2022-08-26T17:23:35.030Z,22.10
2022-08-26T17:26:02.493Z,22.20
2022-08-26T17:28:29.581Z,22.10
2022-08-26T17:31:01.083Z,22.10
2022-08-26T17:33:28.572Z,22.10
2022-08-26T17:35:56.653Z,22.00
2022-08-26T17:38:23.947Z,22.00
2022-08-26T17:40:51.620Z,22.00
2022-08-26T17:43:20.619Z,22.00
2022-08-26T17:45:47.508Z,22.00
2022-08-26T17:48:14.670Z,22.00
2022-08-26T17:50:43.209Z,22.00
2022-08-26T17:53:18.906Z,22.00
2022-08-26T17:55:47.959Z,22.00
2022-08-26T17:58:17.232Z,22.00
2022-08-26T18:00:50.894Z,21.90
2022-08-26T18:03:18.991Z,21.80
2022-08-26T18:05:52.530Z,21.90
2022-08-26T18:08:20.640Z,21.90
2022-08-26T18:10:48.027Z,21.80
2022-08-26T18:13:15.759Z,21.80
2022-08-26T18:15:45.929Z,21.80
2022-08-26T18:18:16.123Z,21.80
2022-08-26T18:20:45.859Z,21.80
2022-08-26T18:23:18.773Z,21.80
2022-08-26T18:25:45.712Z,21.80
2022-08-26T18:28:12.785Z,21.70
2022-08-26T18:30:43.208Z,21.70
2022-08-26T18:33:11.416Z,21.70
2022-08-26T18:35:44.948Z,21.70
2022-08-26T18:38:13.875Z,21.70
2022-08-26T18:40:44.799Z,21.60
2022-08-26T18:43:12.072Z,21.50
2022-08-26T18:45:38.903Z,21.50
2022-08-26T18:48:06.009Z,21.60
2022-08-26T18:50:33.191Z,21.60
2022-08-26T18:53:02.421Z,21.60
2022-08-26T18:55:29.226Z,21.60
2022-08-26T18:57:56.050Z,21.50
2022-08-26T19:00:23.740Z,21.50
2022-08-26T19:02:51.999Z,21.40
2022-08-26T19:05:22.125Z,21.40
2022-08-26T19:07:49.005Z,21.40
2022-08-26T19:10:15.989Z,21.40
2022-08-26T19:12:43.133Z,21.30
2022-08-26T19:15:11.664Z,21.30
2022-08-26T19:17:38.562Z,21.20
2022-08-26T19:20:06.377Z,21.20
2022-08-26T19:22:33.900Z,21.10
2022-08-26T19:25:01.266Z,21.00
2022-08-26T19:27:28.130Z,21.10
2022-08-26T19:29:57.273Z,21.00
2022-08-26T19:32:24.324Z,20.90
2022-08-26T19:34:52.868Z,20.80
2022-08-26T19:37:20.895Z,20.80
2022-08-26T19:39:48.398Z,20.80
2022-08-26T19:42:16.464Z,20.60
2022-08-26T19:45:02.474Z,20.50
2022-08-26T19:47:29.626Z,20.50
2022-08-26T19:49:57.066Z,20.40
2022-08-26T19:52:29.793Z,20.40
2022-08-26T19:54:58.547Z,20.30
2022-08-26T19:57:25.378Z,20.30
2022-08-26T19:59:52.352Z,20.30
2022-08-26T20:02:19.774Z,20.30
2022-08-26T20:04:47.259Z,20.40
2022-08-26T20:07:18.597Z,20.40
2022-08-26T20:09:47.174Z,20.40
2022-08-26T20:12:15.393Z,20.40
2022-08-26T20:14:42.939Z,20.40
2022-08-26T20:17:10.267Z,20.50
2022-08-26T20:19:55.689Z,20.40
2022-08-26T20:22:22.937Z,20.50
2022-08-26T20:24:49.888Z,20.50
2022-08-26T20:27:16.706Z,20.50
2022-08-26T20:29:43.978Z,20.50
2022-08-26T20:32:12.006Z,20.40
2022-08-26T20:34:39.954Z,20.40
2022-08-26T20:37:08.360Z,20.30
2022-08-26T20:39:35.537Z,20.30
2022-08-26T20:42:03.178Z,20.20
2022-08-26T20:44:30.096Z,20.20
2022-08-26T20:46:57.160Z,20.20
2022-08-26T20:49:24.019Z,20.20
2022-08-26T20:51:52.003Z,20.20
2022-08-26T20:54:28.512Z,20.20
2022-08-26T20:56:58.121Z,20.10
2022-08-26T20:59:26.008Z,20.10
2022-08-26T21:01:53.128Z,20.10
2022-08-26T21:04:27.367Z,20.10
2022-08-26T21:06:54.810Z,20.00
2022-08-26T21:09:25.461Z,20.00
2022-08-26T21:11:54.922Z,19.90
2022-08-26T21:14:23.174Z,19.90
2022-08-26T21:16:53.095Z,19.90
2022-08-26T21:19:20.173Z,19.90
2022-08-26T21:21:48.645Z,19.90
2022-08-26T21:24:16.862Z,19.90
2022-08-26T21:26:43.857Z,19.90
2022-08-26T21:29:10.820Z,19.90
2022-08-26T21:31:42.377Z,19.90
2022-08-26T21:34:14.104Z,19.80
2022-08-26T21:36:40.894Z,19.80
2022-08-26T21:39:11.451Z,19.80
2022-08-26T21:41:40.808Z,19.80
2022-08-26T21:44:08.395Z,19.80
2022-08-26T21:46:37.140Z,19.80
2022-08-26T21:49:07.894Z,19.80
2022-08-26T21:51:41.081Z,19.80
2022-08-26T21:54:11.296Z,19.80
2022-08-26T21:56:44.508Z,19.80
2022-08-26T21:59:13.939Z,19.70
2022-08-26T22:01:41.016Z,19.70
2022-08-26T22:04:10.182Z,19.70
2022-08-26T22:06:45.502Z,19.70
2022-08-26T22:09:15.680Z,19.70
2022-08-26T22:11:43.496Z,19.60
2022-08-26T22:14:11.880Z,19.60
2022-08-26T22:16:38.819Z,19.50
2022-08-26T22:19:06.512Z,19.50
2022-08-26T22:21:35.655Z,19.50
2022-08-26T22:24:03.908Z,19.50
2022-08-26T22:26:33.174Z,19.50
2022-08-26T22:29:01.683Z,19.50
2022-08-26T22:31:37.804Z,19.50
2022-08-26T22:34:15.058Z,19.50
2022-08-26T22:36:46.178Z,19.40
2022-08-26T22:39:16.797Z,19.40
2022-08-26T22:41:48.408Z,19.40
2022-08-26T22:44:17.858Z,19.40
2022-08-26T22:46:45.518Z,19.40
2022-08-26T22:49:16.323Z,19.40
2022-08-26T22:51:45.310Z,19.40
2022-08-26T22:54:13.222Z,19.40
2022-08-26T22:56:40.935Z,19.40
2022-08-26T22:59:08.466Z,19.40
2022-08-26T23:01:39.134Z,19.40
2022-08-26T23:04:08.025Z,19.40
2022-08-26T23:06:38.013Z,19.40
2022-08-26T23:09:06.740Z,19.40
2022-08-26T23:11:34.676Z,19.30
2022-08-26T23:14:06.220Z,19.30
2022-08-26T23:16:41.498Z,19.30
2022-08-26T23:19:12.288Z,19.20
2022-08-26T23:21:39.979Z,19.30
2022-08-26T23:24:08.338Z,19.30
2022-08-26T23:26:36.875Z,19.20
2022-08-26T23:29:06.565Z,19.20
2022-08-26T23:31:34.223Z,19.20
2022-08-26T23:34:19.873Z,19.20
2022-08-26T23:36:47.955Z,19.20
2022-08-26T23:39:14.926Z,19.20
2022-08-26T23:41:42.118Z,19.10
2022-08-26T23:44:08.951Z,19.10
2022-08-26T23:46:36.528Z,19.10
2022-08-26T23:49:04.572Z,19.10
2022-08-26T23:51:50.321Z,19.10
2022-08-26T23:54:17.518Z,19.10
2022-08-26T23:56:44.753Z,19.10
2022-08-26T23:59:11.814Z,19.10
